createdAt,value
2019-05-01T00:00:28.263Z,92.82
2019-05-01T00:03:15.292Z,93.15
2019-05-01T00:05:48.003Z,93.89
2019-05-01T00:08:17.140Z,93.76
2019-05-01T00:10:46.271Z,93.97
2019-05-01T00:13:15.616Z,94.15
2019-05-01T00:15:44.999Z,94.04
2019-05-01T00:18:14.077Z,93.83
2019-05-01T00:20:43.377Z,93.95
2019-05-01T00:23:12.475Z,93.49
2019-05-01T00:25:41.981Z,93.53
2019-05-01T00:28:11.228Z,93.67
2019-05-01T00:30:40.873Z,93.65
2019-05-01T00:33:10.276Z,93.68
2019-05-01T00:35:39.469Z,93.72
2019-05-01T00:38:08.618Z,93.85
2019-05-01T00:40:37.870Z,94.11
2019-05-01T00:43:07.148Z,93.78
2019-05-01T00:45:36.230Z,94.00
2019-05-01T00:48:05.511Z,94.37
2019-05-01T00:50:34.809Z,94.78
2019-05-01T00:53:04.413Z,94.92
2019-05-01T00:55:51.097Z,94.64
2019-05-01T00:58:28.038Z,95.34
2019-05-01T01:01:21.387Z,95.32
2019-05-01T01:03:50.623Z,95.48
2019-05-01T01:06:20.030Z,95.75
2019-05-01T01:08:49.214Z,96.07
2019-05-01T01:11:18.298Z,95.94
2019-05-01T01:13:47.539Z,95.95
2019-05-01T01:16:16.686Z,95.79
2019-05-01T01:18:46.019Z,95.68
2019-05-01T01:21:15.155Z,96.35
2019-05-01T01:23:44.677Z,96.36
2019-05-01T01:26:14.033Z,96.19
2019-05-01T01:28:43.110Z,95.80
2019-05-01T01:31:12.439Z,96.27
2019-05-01T01:33:41.726Z,96.20
2019-05-01T01:36:10.808Z,96.33
2019-05-01T01:38:39.900Z,96.38
2019-05-01T01:41:09.181Z,96.46
2019-05-01T01:43:55.751Z,96.24
2019-05-01T01:46:27.242Z,95.69
2019-05-01T01:48:57.055Z,95.71
2019-05-01T01:51:26.320Z,95.52
2019-05-01T01:53:55.706Z,96.08
2019-05-01T01:56:24.897Z,96.53
2019-05-01T01:58:54.158Z,96.18
2019-05-01T02:01:40.410Z,96.39
2019-05-01T02:04:22.917Z,96.33
2019-05-01T02:06:52.002Z,96.59
2019-05-01T02:09:21.048Z,96.63
2019-05-01T02:11:50.640Z,96.81
2019-05-01T02:14:19.674Z,96.42
2019-05-01T02:16:48.740Z,96.57
2019-05-01T02:19:18.025Z,96.71
2019-05-01T02:21:47.159Z,96.84
2019-05-01T02:24:16.523Z,96.69
2019-05-01T02:26:48.410Z,96.84
2019-05-01T02:29:23.621Z,97.40
2019-05-01T02:31:54.078Z,97.66
2019-05-01T02:34:23.616Z,97.62
2019-05-01T02:36:53.581Z,97.94
2019-05-01T02:39:22.900Z,98.12
2019-05-01T02:41:53.591Z,97.92
2019-05-01T02:44:32.193Z,97.93
2019-05-01T02:47:04.830Z,97.91
2019-05-01T02:49:43.224Z,98.17
2019-05-01T02:52:13.047Z,98.03
2019-05-01T02:54:43.289Z,98.35
2019-05-01T02:57:16.432Z,98.47
2019-05-01T02:59:47.565Z,98.93
2019-05-01T03:02:18.599Z,99.04
2019-05-01T03:04:48.037Z,98.65
2019-05-01T03:07:17.968Z,98.66
2019-05-01T03:09:47.582Z,98.54
2019-05-01T03:12:18.492Z,98.92
2019-05-01T03:14:49.404Z,99.25
2019-05-01T03:17:38.006Z,98.84
2019-05-01T03:20:26.557Z,98.72
2019-05-01T03:23:33.377Z,98.96
2019-05-01T03:26:02.687Z,98.77
2019-05-01T03:28:32.331Z,98.61
2019-05-01T03:31:02.244Z,98.37
2019-05-01T03:33:31.505Z,98.49
2019-05-01T03:36:00.570Z,98.39
2019-05-01T03:38:30.947Z,98.44
2019-05-01T03:41:00.137Z,98.75
2019-05-01T03:43:29.606Z,99.73
2019-05-01T03:45:59.067Z,99.30
2019-05-01T03:48:29.065Z,99.44
2019-05-01T03:50:58.282Z,99.65
2019-05-01T03:53:27.855Z,99.49
2019-05-01T03:55:57.145Z,99.53
2019-05-01T03:58:26.490Z,99.60
2019-05-01T04:01:13.327Z,99.42
2019-05-01T04:03:49.466Z,99.64
2019-05-01T04:06:18.797Z,99.52
2019-05-01T04:08:47.916Z,99.82
2019-05-01T04:11:17.001Z,100.00
2019-05-01T04:13:46.383Z,100.00
2019-05-01T04:16:16.221Z,100.00
2019-05-01T04:18:45.593Z,99.94
2019-05-01T04:21:15.023Z,100.00
2019-05-01T04:23:44.153Z,100.00
2019-05-01T04:26:13.701Z,100.00
2019-05-01T04:28:52.000Z,100.00
2019-05-01T04:31:46.372Z,100.00
2019-05-01T04:34:25.252Z,100.00
2019-05-01T04:36:56.612Z,100.00
2019-05-01T04:39:26.183Z,100.00
2019-05-01T04:41:55.516Z,100.00
2019-05-01T04:44:24.914Z,100.00
2019-05-01T04:46:54.725Z,100.00
2019-05-01T04:49:23.934Z,100.00
2019-05-01T04:51:53.237Z,100.00
2019-05-01T04:54:22.739Z,100.00
2019-05-01T04:56:52.005Z,99.75
2019-05-01T04:59:21.416Z,99.80
2019-05-01T05:01:59.720Z,99.63
2019-05-01T05:04:29.038Z,99.36
2019-05-01T05:06:58.391Z,99.46
2019-05-01T05:09:42.630Z,99.48
2019-05-01T05:12:20.900Z,99.46
2019-05-01T05:14:55.001Z,99.07
2019-05-01T05:17:24.374Z,97.94
2019-05-01T05:19:53.636Z,97.96
2019-05-01T05:22:22.943Z,97.36
2019-05-01T05:24:53.018Z,97.61
2019-05-01T05:27:22.666Z,96.58
2019-05-01T05:29:53.824Z,96.98
2019-05-01T05:32:24.014Z,96.18
2019-05-01T05:34:54.776Z,96.09
2019-05-01T05:37:28.916Z,95.37
2019-05-01T05:39:58.759Z,94.59
2019-05-01T05:42:28.379Z,94.24
2019-05-01T05:44:57.563Z,94.10
2019-05-01T05:47:27.023Z,94.07
2019-05-01T05:49:56.103Z,93.23
2019-05-01T05:52:53.921Z,92.66
2019-05-01T05:55:31.866Z,91.87
2019-05-01T05:58:14.141Z,90.54
2019-05-01T06:01:11.769Z,89.87
2019-05-01T06:03:58.957Z,89.84
2019-05-01T06:06:53.752Z,88.31
2019-05-01T06:09:29.033Z,90.32
2019-05-01T06:12:12.121Z,88.45
2019-05-01T06:14:55.944Z,87.13
2019-05-01T06:17:40.913Z,87.22
2019-05-01T06:20:28.990Z,87.11
2019-05-01T06:23:15.768Z,86.41
2019-05-01T06:25:45.310Z,85.78
2019-05-01T06:28:14.757Z,84.31
2019-05-01T06:30:47.068Z,83.81
2019-05-01T06:33:18.057Z,83.44
2019-05-01T06:35:47.373Z,81.24
2019-05-01T06:38:17.780Z,82.33
2019-05-01T06:40:53.204Z,81.38
2019-05-01T06:43:29.290Z,80.70
2019-05-01T06:46:22.005Z,80.47
2019-05-01T06:48:57.004Z,79.29
2019-05-01T06:51:53.189Z,79.59
2019-05-01T06:54:22.316Z,77.85
2019-05-01T06:56:51.486Z,77.30
2019-05-01T06:59:21.582Z,77.13
2019-05-01T07:01:53.278Z,77.21
2019-05-01T07:04:23.118Z,76.81
2019-05-01T07:06:52.599Z,75.90
2019-05-01T07:09:28.011Z,74.52
2019-05-01T07:11:54.563Z,74.51
2019-05-01T07:14:23.901Z,72.73
2019-05-01T07:16:53.082Z,71.26
2019-05-01T07:19:41.976Z,70.11
2019-05-01T07:22:11.129Z,69.84
2019-05-01T07:24:40.424Z,68.51
2019-05-01T07:27:09.475Z,68.50
2019-05-01T07:29:44.852Z,68.46
2019-05-01T07:32:11.724Z,67.33
2019-05-01T07:34:41.185Z,67.13
2019-05-01T07:37:10.390Z,65.86
2019-05-01T07:39:39.696Z,66.16
2019-05-01T07:42:32.844Z,65.90
2019-05-01T07:45:28.906Z,65.48
2019-05-01T07:48:00.991Z,64.75
2019-05-01T07:50:31.876Z,65.58
2019-05-01T07:53:00.827Z,64.82
2019-05-01T07:55:36.302Z,63.50
2019-05-01T07:58:10.328Z,63.97
2019-05-01T08:01:01.971Z,64.33
2019-05-01T08:03:31.220Z,63.40
2019-05-01T08:06:00.403Z,61.72
2019-05-01T08:08:29.514Z,61.95
2019-05-01T08:10:59.908Z,62.50
2019-05-01T08:13:30.637Z,61.45
2019-05-01T08:16:02.073Z,60.76
2019-05-01T08:18:41.203Z,58.54
2019-05-01T08:21:25.557Z,57.82
2019-05-01T08:23:51.659Z,57.64
2019-05-01T08:26:20.832Z,55.75
2019-05-01T08:29:08.136Z,54.49
2019-05-01T08:32:03.484Z,53.23
2019-05-01T08:34:30.153Z,54.68
2019-05-01T08:36:59.641Z,54.33
2019-05-01T08:39:28.764Z,53.29
2019-05-01T08:41:58.023Z,54.61
2019-05-01T08:44:29.529Z,52.86
2019-05-01T08:47:16.046Z,53.36
2019-05-01T08:50:04.193Z,51.91
2019-05-01T08:52:33.633Z,53.12
2019-05-01T08:55:04.228Z,52.31
2019-05-01T08:57:35.914Z,51.49
2019-05-01T09:00:05.035Z,52.50
2019-05-01T09:02:36.658Z,51.95
2019-05-01T09:05:07.278Z,50.67
2019-05-01T09:07:36.691Z,51.57
2019-05-01T09:10:08.967Z,50.82
2019-05-01T09:12:37.180Z,49.70
2019-05-01T09:15:12.451Z,49.36
2019-05-01T09:17:38.009Z,48.53
2019-05-01T09:20:08.163Z,50.18
2019-05-01T09:22:37.282Z,49.33
2019-05-01T09:25:07.984Z,47.73
2019-05-01T09:27:47.279Z,48.39
2019-05-01T09:30:26.796Z,49.26
2019-05-01T09:32:55.552Z,50.02
2019-05-01T09:35:24.756Z,48.86
2019-05-01T09:37:53.896Z,48.21
2019-05-01T09:40:23.025Z,48.11
2019-05-01T09:42:54.658Z,47.43
2019-05-01T09:45:24.222Z,46.40
2019-05-01T09:47:53.488Z,44.44
2019-05-01T09:50:25.901Z,44.56
2019-05-01T09:53:11.611Z,44.42
2019-05-01T09:55:47.465Z,44.63
2019-05-01T09:58:16.749Z,44.13
2019-05-01T10:00:48.895Z,45.26
2019-05-01T10:03:18.123Z,43.52
2019-05-01T10:05:48.442Z,41.60
2019-05-01T10:08:17.536Z,42.44
2019-05-01T10:10:46.792Z,44.11
2019-05-01T10:13:17.631Z,44.54
2019-05-01T10:15:46.717Z,42.74
2019-05-01T10:18:15.826Z,44.99
2019-05-01T10:20:44.925Z,44.18
2019-05-01T10:23:15.057Z,42.88
2019-05-01T10:25:49.761Z,43.78
2019-05-01T10:28:31.749Z,43.57
2019-05-01T10:31:11.957Z,43.77
2019-05-01T10:33:43.165Z,43.88
2019-05-01T10:36:31.230Z,42.60
2019-05-01T10:39:01.215Z,41.39
2019-05-01T10:41:30.535Z,39.96
2019-05-01T10:44:00.607Z,38.92
2019-05-01T10:46:29.840Z,40.46
2019-05-01T10:48:58.993Z,41.13
2019-05-01T10:51:28.106Z,41.05
2019-05-01T10:53:57.578Z,39.37
2019-05-01T10:56:26.810Z,38.45
2019-05-01T10:58:55.930Z,38.17
2019-05-01T11:01:50.132Z,37.31
2019-05-01T11:04:20.262Z,35.97
2019-05-01T11:06:49.591Z,35.69
2019-05-01T11:09:19.089Z,32.96
2019-05-01T11:11:48.390Z,33.43
2019-05-01T11:14:17.689Z,33.61
2019-05-01T11:16:46.902Z,33.89
2019-05-01T11:19:15.983Z,34.02
2019-05-01T11:21:45.885Z,34.55
2019-05-01T11:24:15.095Z,34.58
2019-05-01T11:26:44.424Z,34.89
2019-05-01T11:29:13.613Z,33.93
2019-05-01T11:32:04.699Z,34.15
2019-05-01T11:34:49.768Z,35.48
2019-05-01T11:37:37.841Z,35.22
2019-05-01T11:40:12.146Z,36.35
2019-05-01T11:42:41.259Z,35.39
2019-05-01T11:45:10.776Z,35.42
2019-05-01T11:47:39.922Z,34.35
2019-05-01T11:50:09.152Z,35.30
2019-05-01T11:52:38.321Z,34.43
2019-05-01T11:55:07.469Z,34.54
2019-05-01T11:57:36.724Z,36.07
2019-05-01T12:00:06.968Z,35.11
2019-05-01T12:02:36.513Z,32.93
2019-05-01T12:05:06.339Z,34.44
2019-05-01T12:07:35.463Z,33.78
2019-05-01T12:10:05.547Z,33.91
2019-05-01T12:12:35.124Z,32.62
2019-05-01T12:15:05.390Z,33.58
2019-05-01T12:17:46.901Z,33.98
2019-05-01T12:20:17.029Z,33.50
2019-05-01T12:22:49.610Z,33.93
2019-05-01T12:25:17.454Z,33.80
2019-05-01T12:27:46.771Z,33.24
2019-05-01T12:30:17.285Z,33.70
2019-05-01T12:32:46.947Z,32.83
2019-05-01T12:35:16.272Z,32.38
2019-05-01T12:37:47.509Z,32.03
2019-05-01T12:40:21.781Z,31.13
2019-05-01T12:42:50.906Z,31.86
2019-05-01T12:45:20.882Z,32.74
2019-05-01T12:47:52.239Z,33.41
2019-05-01T12:50:21.349Z,33.22
2019-05-01T12:53:07.953Z,34.64
2019-05-01T12:56:02.324Z,34.27
2019-05-01T12:58:31.759Z,34.78
2019-05-01T13:01:01.063Z,35.17
2019-05-01T13:03:30.247Z,34.02
2019-05-01T13:05:59.634Z,34.30
2019-05-01T13:08:28.736Z,34.08
2019-05-01T13:10:58.505Z,33.76
2019-05-01T13:13:27.737Z,34.86
2019-05-01T13:15:56.858Z,35.45
2019-05-01T13:18:26.032Z,34.72
2019-05-01T13:20:55.215Z,33.67
2019-05-01T13:23:24.320Z,33.55
2019-05-01T13:25:55.277Z,34.30
2019-05-01T13:28:43.493Z,34.36
2019-05-01T13:31:32.422Z,33.41
2019-05-01T13:34:01.508Z,32.75
2019-05-01T13:36:31.033Z,33.77
2019-05-01T13:39:00.390Z,33.27
2019-05-01T13:41:29.767Z,34.07
2019-05-01T13:43:59.093Z,33.01
2019-05-01T13:46:28.383Z,33.41
2019-05-01T13:48:57.505Z,32.48
2019-05-01T13:51:26.856Z,32.74
2019-05-01T13:53:55.922Z,32.96
2019-05-01T13:56:25.024Z,33.46
2019-05-01T13:58:54.296Z,32.85
2019-05-01T14:01:24.030Z,33.34
2019-05-01T14:03:53.446Z,33.18
2019-05-01T14:06:22.830Z,34.03
2019-05-01T14:08:52.279Z,33.51
2019-05-01T14:11:21.663Z,33.34
2019-05-01T14:13:51.366Z,33.41
2019-05-01T14:16:20.714Z,33.37
2019-05-01T14:18:49.830Z,33.18
2019-05-01T14:21:26.617Z,33.80
2019-05-01T14:24:11.662Z,34.24
2019-05-01T14:26:41.804Z,33.46
2019-05-01T14:29:11.490Z,32.90
2019-05-01T14:31:41.887Z,33.12
2019-05-01T14:34:11.567Z,33.88
2019-05-01T14:36:41.061Z,33.45
2019-05-01T14:39:10.982Z,33.44
2019-05-01T14:41:41.221Z,33.40
2019-05-01T14:44:10.698Z,33.08
2019-05-01T14:46:40.013Z,33.37
2019-05-01T14:49:09.320Z,33.34
2019-05-01T14:51:38.430Z,33.58
2019-05-01T14:54:07.544Z,32.30
2019-05-01T14:56:36.792Z,32.86
2019-05-01T14:59:05.914Z,33.16
2019-05-01T15:01:35.122Z,33.57
2019-05-01T15:04:04.456Z,32.83
2019-05-01T15:06:33.534Z,32.67
2019-05-01T15:09:02.661Z,32.49
2019-05-01T15:11:31.992Z,33.14
2019-05-01T15:14:20.067Z,33.08
2019-05-01T15:16:54.637Z,33.24
2019-05-01T15:19:25.790Z,33.17
2019-05-01T15:21:55.052Z,33.15
2019-05-01T15:24:24.206Z,33.29
2019-05-01T15:26:53.712Z,33.32
2019-05-01T15:29:22.936Z,34.01
2019-05-01T15:31:52.590Z,34.25
2019-05-01T15:34:21.836Z,34.20
2019-05-01T15:36:51.122Z,33.88
2019-05-01T15:39:28.179Z,34.21
2019-05-01T15:42:10.313Z,34.42
2019-05-01T15:44:39.504Z,34.46
2019-05-01T15:47:08.806Z,33.09
2019-05-01T15:49:38.016Z,33.32
2019-05-01T15:52:07.498Z,33.29
2019-05-01T15:54:36.803Z,33.45
2019-05-01T15:57:06.305Z,33.06
2019-05-01T15:59:35.377Z,33.75
2019-05-01T16:02:04.686Z,33.72
2019-05-01T16:04:33.810Z,34.02
2019-05-01T16:07:03.008Z,34.53
2019-05-01T16:09:32.251Z,34.61
2019-05-01T16:12:16.441Z,34.89
2019-05-01T16:14:49.829Z,34.58
2019-05-01T16:17:20.162Z,34.43
2019-05-01T16:19:49.299Z,33.63
2019-05-01T16:22:18.768Z,34.21
2019-05-01T16:24:47.848Z,34.59
2019-05-01T16:27:17.481Z,34.22
2019-05-01T16:29:46.814Z,33.43
2019-05-01T16:32:16.139Z,33.75
2019-05-01T16:34:45.508Z,34.04
2019-05-01T16:37:14.800Z,33.64
2019-05-01T16:40:02.307Z,34.43
2019-05-01T16:42:36.398Z,33.56
2019-05-01T16:45:06.505Z,33.88
2019-05-01T16:47:35.840Z,34.06
2019-05-01T16:50:06.513Z,34.45
2019-05-01T16:52:36.979Z,34.89
2019-05-01T16:55:08.408Z,34.96
2019-05-01T16:57:37.866Z,35.74
2019-05-01T17:00:10.301Z,34.81
2019-05-01T17:03:14.087Z,35.11
2019-05-01T17:05:58.393Z,34.27
2019-05-01T17:08:58.531Z,34.34
2019-05-01T17:11:29.456Z,34.20
2019-05-01T17:13:59.288Z,34.95
2019-05-01T17:16:28.560Z,35.05
2019-05-01T17:18:58.681Z,34.16
2019-05-01T17:21:28.396Z,34.54
2019-05-01T17:23:57.924Z,35.26
2019-05-01T17:26:27.333Z,35.89
2019-05-01T17:28:56.621Z,35.55
2019-05-01T17:31:28.493Z,35.29
2019-05-01T17:33:57.638Z,34.53
2019-05-01T17:36:27.732Z,35.28
2019-05-01T17:38:59.283Z,35.80
2019-05-01T17:41:29.098Z,35.89
2019-05-01T17:43:58.571Z,36.11
2019-05-01T17:46:28.685Z,36.00
2019-05-01T17:49:04.094Z,36.66
2019-05-01T17:51:32.101Z,35.95
2019-05-01T17:54:02.245Z,37.99
2019-05-01T17:56:32.719Z,38.47
2019-05-01T17:59:03.676Z,40.11
2019-05-01T18:01:50.024Z,40.87
2019-05-01T18:04:30.911Z,42.63
2019-05-01T18:07:00.459Z,44.74
2019-05-01T18:09:29.576Z,45.22
2019-05-01T18:11:59.089Z,45.45
2019-05-01T18:14:28.326Z,45.71
2019-05-01T18:16:57.466Z,46.55
2019-05-01T18:19:26.591Z,47.57
2019-05-01T18:22:20.473Z,48.66
2019-05-01T18:25:14.581Z,49.70
2019-05-01T18:27:58.406Z,50.18
2019-05-01T18:30:33.676Z,50.65
2019-05-01T18:33:05.191Z,50.67
2019-05-01T18:35:34.497Z,50.95
2019-05-01T18:38:32.063Z,53.30
2019-05-01T18:41:28.014Z,55.62
2019-05-01T18:43:57.218Z,56.07
2019-05-01T18:46:27.393Z,55.80
2019-05-01T18:48:59.152Z,56.53
2019-05-01T18:51:28.651Z,57.79
2019-05-01T18:53:59.742Z,58.99
2019-05-01T18:56:31.268Z,59.17
2019-05-01T18:59:00.352Z,60.54
2019-05-01T19:01:29.730Z,62.80
2019-05-01T19:03:59.135Z,63.55
2019-05-01T19:06:40.660Z,63.79
2019-05-01T19:08:59.241Z,64.70
2019-05-01T19:11:28.382Z,65.18
2019-05-01T19:13:58.784Z,65.78
2019-05-01T19:16:27.966Z,67.09
2019-05-01T19:18:57.523Z,67.28
2019-05-01T19:21:29.088Z,67.19
2019-05-01T19:24:00.449Z,66.28
2019-05-01T19:26:29.811Z,65.43
2019-05-01T19:28:59.045Z,64.71
2019-05-01T19:31:29.087Z,64.98
2019-05-01T19:33:58.233Z,65.80
2019-05-01T19:36:27.527Z,66.68
2019-05-01T19:38:56.833Z,67.14
2019-05-01T19:41:27.059Z,67.00
2019-05-01T19:43:56.436Z,67.37
2019-05-01T19:46:25.720Z,67.78
2019-05-01T19:48:56.381Z,68.25
2019-05-01T19:51:26.110Z,68.69
2019-05-01T19:53:55.698Z,69.00
2019-05-01T19:56:25.235Z,69.71
2019-05-01T19:58:54.543Z,69.88
2019-05-01T20:01:23.653Z,70.99
2019-05-01T20:03:52.980Z,70.82
2019-05-01T20:06:22.052Z,71.15
2019-05-01T20:08:51.299Z,70.84
2019-05-01T20:11:20.669Z,71.55
2019-05-01T20:13:49.929Z,71.72
2019-05-01T20:16:19.634Z,72.75
2019-05-01T20:18:49.013Z,72.67
2019-05-01T20:21:18.780Z,72.45
2019-05-01T20:23:48.082Z,72.23
2019-05-01T20:26:17.528Z,72.06
2019-05-01T20:28:47.258Z,73.03
2019-05-01T20:31:17.883Z,73.01
2019-05-01T20:33:48.077Z,73.54
2019-05-01T20:36:17.748Z,73.64
2019-05-01T20:38:47.129Z,74.48
2019-05-01T20:41:18.015Z,74.87
2019-05-01T20:43:47.343Z,75.06
2019-05-01T20:46:21.405Z,75.05
2019-05-01T20:48:47.718Z,75.44
2019-05-01T20:51:20.197Z,76.01
2019-05-01T20:53:49.129Z,75.86
2019-05-01T20:56:26.995Z,76.13
2019-05-01T20:58:57.628Z,76.38
2019-05-01T21:01:29.522Z,76.82
2019-05-01T21:04:21.968Z,76.87
2019-05-01T21:07:15.651Z,77.21
2019-05-01T21:09:47.673Z,77.89
2019-05-01T21:12:16.949Z,78.02
2019-05-01T21:14:49.551Z,78.31
2019-05-01T21:17:17.319Z,78.44
2019-05-01T21:19:46.698Z,78.24
2019-05-01T21:22:15.845Z,78.31
2019-05-01T21:24:45.316Z,78.40
2019-05-01T21:27:14.516Z,78.31
2019-05-01T21:29:44.606Z,78.25
2019-05-01T21:32:18.266Z,78.31
2019-05-01T21:34:44.968Z,78.32
2019-05-01T21:37:14.320Z,78.05
2019-05-01T21:39:43.940Z,78.33
2019-05-01T21:42:16.089Z,78.35
2019-05-01T21:44:44.338Z,78.57
2019-05-01T21:47:14.030Z,78.71
2019-05-01T21:49:43.306Z,78.61
2019-05-01T21:52:13.618Z,78.97
2019-05-01T21:54:43.570Z,78.74
2019-05-01T21:57:17.301Z,78.89
2019-05-01T21:59:46.663Z,78.94
2019-05-01T22:02:14.977Z,79.10
2019-05-01T22:04:44.108Z,79.31
2019-05-01T22:07:13.636Z,79.35
2019-05-01T22:09:45.702Z,79.16
2019-05-01T22:12:14.450Z,79.30
2019-05-01T22:15:10.911Z,79.61
2019-05-01T22:18:01.917Z,80.08
2019-05-01T22:20:44.519Z,79.87
2019-05-01T22:23:17.133Z,80.13
2019-05-01T22:25:50.061Z,80.21
2019-05-01T22:28:26.897Z,80.56
2019-05-01T22:31:16.727Z,80.57
2019-05-01T22:33:47.407Z,80.94
2019-05-01T22:36:17.160Z,80.90
2019-05-01T22:38:46.740Z,81.21
2019-05-01T22:41:16.242Z,81.62
2019-05-01T22:43:45.529Z,81.67
2019-05-01T22:46:21.066Z,82.02
2019-05-01T22:48:50.557Z,82.27
2019-05-01T22:51:22.595Z,82.05
2019-05-01T22:53:54.863Z,82.32
2019-05-01T22:56:25.530Z,82.50
2019-05-01T22:58:55.195Z,83.13
2019-05-01T23:01:25.874Z,83.11
2019-05-01T23:03:57.193Z,83.11
2019-05-01T23:06:26.359Z,83.59
2019-05-01T23:08:55.867Z,83.41
2019-05-01T23:11:26.700Z,84.03
2019-05-01T23:13:56.315Z,83.80
2019-05-01T23:16:28.722Z,83.90
2019-05-01T23:18:58.287Z,84.45
2019-05-01T23:21:27.847Z,84.45
2019-05-01T23:24:01.769Z,84.60
2019-05-01T23:26:27.912Z,84.90
2019-05-01T23:28:57.235Z,85.07
2019-05-01T23:31:26.557Z,85.18
2019-05-01T23:33:55.890Z,85.38
2019-05-01T23:36:25.005Z,85.39
2019-05-01T23:38:54.149Z,85.41
2019-05-01T23:41:44.769Z,85.59
2019-05-01T23:43:58.309Z,85.42
2019-05-01T23:46:25.518Z,84.95
2019-05-01T23:48:55.399Z,85.50
2019-05-01T23:51:28.637Z,86.00
2019-05-01T23:53:55.842Z,86.66
2019-05-01T23:56:25.049Z,87.06
2019-05-01T23:58:55.318Z,87.79
